Time;durP1;ratioP1;P1;durP2;ratioP2;P2;SDS_P1;SDS_P2;PMS_P1;PMS_P2;Temp;Humidity;BMP_temperature;BMP_pressure;BME280_temperature;BME280_humidity;BME280_pressure;Samples;Min_cycle;Max_cycle;Signal;HPM_P1;HPM_P2
2021/11/09 00:00:23;;;;;;;;;;;;;;;;;;1021367;28;973;-32
2021/11/09 00:01:06;;;;;;;;;;;;;;;;;;1021376;28;883;-30
2021/11/09 00:01:44;;;;;;;;;;;;;;;;;;1021516;28;970;-27
2021/11/09 00:02:14;;;;;;;;;;;;;;;;;;1020825;28;1287;-28
2021/11/09 00:02:46;;;;;;;;;;;;;;;;;;1021420;29;851;-29
2021/11/09 00:03:18;;;;;;;;;;;;;;;;;;1021487;28;1093;-30
2021/11/09 00:03:57;;;;;;;;;;;;;;;;;;1021341;28;796;-30
2021/11/09 00:04:35;;;;;;;;;;;;;;;;;;1021477;28;954;-29
2021/11/09 00:05:08;;;;;;;;;;;;;;;;;;1021174;28;1069;-31
2021/11/09 00:05:54;;;;;;;;;;;;;;;;;;1021494;28;898;-28
2021/11/09 00:06:27;;;;;;;;;;;;;;;;;;1020447;29;965;-29
2021/11/09 00:07:04;;;;;;;;;;;;;;;;;;1020561;29;998;-31
2021/11/09 00:07:42;;;;;;;;;;;;;;;;;;1020771;29;868;-28
2021/11/09 00:08:18;;;;;;;;;;;;;;;;;;1021259;28;978;-28
2021/11/09 00:09:15;;;;;;;;;;;;;;;;;;1021205;28;1064;-32
2021/11/09 00:09:57;;;;;;;;;;;;;;;;;;1018125;29;1070;-33
2021/11/09 00:10:28;;;;;;;;;;;;;;;;;;1021545;28;1171;-30
2021/11/09 00:10:58;;;;;;;;;;;;;;;;;;1021357;28;906;-31
2021/11/09 00:11:29;;;;;;;;;;;;;;;;;;1021501;28;1070;-31
2021/11/09 00:11:59;;;;;;;;;;;;;;;;;;1021336;29;971;-30
2021/11/09 00:12:32;;;;;;;;;;;;;;;;;;1021521;29;852;-29
2021/11/09 00:13:03;;;;;;;;;;;;;;;;;;1016473;29;1016;-32
2021/11/09 00:13:34;;;;;;;;;;;;;;;;;;1020740;29;917;-30
2021/11/09 00:14:07;;;;;;;;;;;;;;;;;;1020723;29;1002;-29
2021/11/09 00:14:37;;;;;;;;;;;;;;;;;;1021387;28;1330;-32
2021/11/09 00:15:09;;;;;;;;;;;;;;;;;;1028363;28;807;-31
2021/11/09 00:15:40;;;;;;;;;;;;;;;;;;1021290;29;996;-29
2021/11/09 00:16:11;;;;;;;;;;;;;;;;;;1020571;29;1021;-29
2021/11/09 00:16:42;;;;;;;;;;;;;;;;;;1020637;29;950;-31
2021/11/09 00:17:12;;;;;;;;;;;;;;;;;;1020549;29;935;-29
2021/11/09 00:17:44;;;;;;;;;;;;;;;;;;1020760;28;1014;-32
2021/11/09 00:18:14;;;;;;;;;;;;;;;;;;1021390;29;969;-29
2021/11/09 00:18:48;;;;;;;;;;;;;;;;;;1021502;29;859;-28
2021/11/09 00:19:18;;;;;;;;;;;;;;;;;;1021252;28;942;-30
2021/11/09 00:19:49;;;;;;;;;;;;;;;;;;1021303;29;1927;-30
2021/11/09 00:20:21;;;;;;;;;;;;;;;;;;1021385;28;1078;-31
2021/11/09 00:20:52;;;;;;;;;;;;;;;;;;1021569;28;1033;-31
2021/11/09 00:21:25;;;;;;;;;;;;;;;;;;1021254;28;962;-32
2021/11/09 00:21:55;;;;;;;;;;;;;;;;;;1021329;28;890;-28
2021/11/09 00:22:27;;;;;;;;;;;;;;;;;;1021398;28;846;-29
2021/11/09 00:22:58;;;;;;;;;;;;;;;;;;1020652;29;1063;-27
2021/11/09 00:23:28;;;;;;;;;;;;;;;;;;1020289;29;1259;-33
2021/11/09 00:24:03;;;;;;;;;;;;;;;;;;1020656;29;1206;-33
2021/11/09 00:24:33;;;;;;;;;;;;;;;;;;1020856;29;1112;-27
2021/11/09 00:25:04;;;;;;;;;;;;;;;;;;1020734;28;1316;-26
2021/11/09 00:25:35;;;;;;;;;;;;;;;;;;1021356;28;1153;-33
2021/11/09 00:26:07;;;;;;;;;;;;;;;;;;1021352;29;1079;-27
2021/11/09 00:26:37;;;;;;;;;;;;;;;;;;1021336;28;958;-33
2021/11/09 00:27:09;;;;;;;;;;;;;;;;;;1020955;29;994;-28
2021/11/09 00:27:39;;;;;;;;;;;;;;;;;;1020900;29;785;-30
2021/11/09 00:28:10;;;;;;;;;;;;;;;;;;1021008;29;992;-27
2021/11/09 00:28:43;;;;;;;;;;;;;;;;;;1021014;28;976;-30
2021/11/09 00:29:13;;;;;;;;;;;;;;;;;;1021307;28;1150;-31
2021/11/09 00:29:46;;;;;;;;;;;;;;;;;;1021787;29;1091;-28
2021/11/09 00:30:18;;;;;;;;;;;;;;;;;;1021927;28;1706;-31
2021/11/09 00:30:48;;;;;;;;;;;;;;;;;;1021358;29;1219;-32
2021/11/09 00:31:18;;;;;;;;;;;;;;;;;;1021440;29;1124;-32
2021/11/09 00:31:49;;;;;;;;;;;;;;;;;;1021468;29;1138;-33
2021/11/09 00:32:19;;;;;;;;;;;;;;;;;;1021268;29;1014;-34
2021/11/09 00:32:50;;;;;;;;;;;;;;;;;;1021796;29;1071;-28
2021/11/09 00:33:23;;;;;;;;;;;;;;;;;;1021608;29;1019;-30
2021/11/09 00:33:54;;;;;;;;;;;;;;;;;;1021855;29;970;-30
2021/11/09 00:34:27;;;;;;;;;;;;;;;;;;1021561;29;1012;-30
2021/11/09 00:34:57;;;;;;;;;;;;;;;;;;1022145;28;1276;-29
2021/11/09 00:35:35;;;;;;;;;;;;;;;;;;1017590;29;900;-30
2021/11/09 00:36:06;;;;;;;;;;;;;;;;;;1017396;29;926;-29
2021/11/09 00:36:36;;;;;;;;;;;;;;;;;;1025111;28;1049;-30
2021/11/09 00:37:07;;;;;;;;;;;;;;;;;;1024473;28;1033;-30
2021/11/09 00:37:37;;;;;;;;;;;;;;;;;;1021350;28;1067;-31
2021/11/09 00:38:10;;;;;;;;;;;;;;;;;;1021346;29;908;-34
2021/11/09 00:38:41;;;;;;;;;;;;;;;;;;1022096;28;1082;-27
2021/11/09 00:39:12;;;;;;;;;;;;;;;;;;1017372;29;1193;-32
2021/11/09 00:39:43;;;;;;;;;;;;;;;;;;1016861;29;1910;-34
2021/11/09 00:40:15;;;;;;;;;;;;;;;;;;1017459;29;898;-30
2021/11/09 00:40:48;;;;;;;;;;;;;;;;;;1017692;29;1041;-31
2021/11/09 00:41:18;;;;;;;;;;;;;;;;;;1021738;28;1231;-30
2021/11/09 00:41:49;;;;;;;;;;;;;;;;;;1022165;28;954;-30
2021/11/09 00:42:22;;;;;;;;;;;;;;;;;;1021918;28;1058;-29
2021/11/09 00:42:59;;;;;;;;;;;;;;;;;;1022132;28;1324;-31
2021/11/09 00:43:32;;;;;;;;;;;;;;;;;;1021969;29;1358;-32
2021/11/09 00:44:03;;;;;;;;;;;;;;;;;;1021883;28;974;-29
2021/11/09 00:44:34;;;;;;;;;;;;;;;;;;1022242;29;860;-33
2021/11/09 00:45:06;;;;;;;;;;;;;;;;;;1022037;28;1100;-30
2021/11/09 00:45:38;;;;;;;;;;;;;;;;;;1022230;28;1034;-31
2021/11/09 00:46:08;;;;;;;;;;;;;;;;;;1021931;28;1777;-30
2021/11/09 00:46:42;;;;;;;;;;;;;;;;;;1021814;28;985;-31
2021/11/09 00:47:12;;;;;;;;;;;;;;;;;;1022260;28;823;-32
2021/11/09 00:47:43;;;;;;;;;;;;;;;;;;1021878;29;1318;-30
2021/11/09 00:48:14;;;;;;;;;;;;;;;;;;1022086;28;929;-33
2021/11/09 00:48:45;;;;;;;;;;;;;;;;;;1022251;29;1034;-30
2021/11/09 00:49:16;;;;;;;;;;;;;;;;;;1022010;28;975;-29
2021/11/09 00:49:47;;;;;;;;;;;;;;;;;;1022168;28;1154;-31
2021/11/09 00:50:18;;;;;;;;;;;;;;;;;;1021893;29;903;-29
2021/11/09 00:50:50;;;;;;;;;;;;;;;;;;1022035;29;799;-31
2021/11/09 00:51:23;;;;;;;;;;;;;;;;;;1021320;29;1328;-32
2021/11/09 00:51:53;;;;;;;;;;;;;;;;;;1021471;29;1058;-32
2021/11/09 00:52:24;;;;;;;;;;;;;;;;;;1021462;29;925;-31
2021/11/09 00:52:55;;;;;;;;;;;;;;;;;;1021501;29;1759;-32
2021/11/09 00:53:27;;;;;;;;;;;;;;;;;;1022002;29;867;-33
2021/11/09 00:53:57;;;;;;;;;;;;;;;;;;1025646;28;1180;-35
2021/11/09 00:54:29;;;;;;;;;;;;;;;;;;1025578;28;942;-32
2021/11/09 00:55:00;;;;;;;;;;;;;;;;;;1025768;28;963;-34
2021/11/09 00:55:30;;;;;;;;;;;;;;;;;;1025286;28;1440;-33
2021/11/09 00:56:01;;;;;;;;;;;;;;;;;;1021903;28;1042;-32
2021/11/09 00:56:31;;;;;;;;;;;;;;;;;;1022007;28;1143;-35
2021/11/09 00:57:02;;;;;;;;;;;;;;;;;;1021892;28;842;-28
2021/11/09 00:57:33;;;;;;;;;;;;;;;;;;1022045;29;1394;-28
2021/11/09 00:58:03;;;;;;;;;;;;;;;;;;1022191;28;942;-35
2021/11/09 00:58:33;;;;;;;;;;;;;;;;;;1021872;28;971;-31
2021/11/09 00:59:04;;;;;;;;;;;;;;;;;;1022039;28;935;-33
2021/11/09 00:59:35;;;;;;;;;;;;;;;;;;1021860;28;1923;-33
2021/11/09 01:00:07;;;;;;;;;;;;;;;;;;1021878;29;1044;-31
2021/11/09 01:00:38;;;;;;;;;;;;;;;;;;1022101;28;847;-30
2021/11/09 01:01:08;;;;;;;;;;;;;;;;;;1021495;28;1190;-30
2021/11/09 01:01:39;;;;;;;;;;;;;;;;;;1022060;29;907;-28
2021/11/09 01:02:09;;;;;;;;;;;;;;;;;;1022156;29;946;-31
2021/11/09 01:02:41;;;;;;;;;;;;;;;;;;1021882;28;1078;-30
2021/11/09 01:03:14;;;;;;;;;;;;;;;;;;1022019;29;938;-32
2021/11/09 01:03:45;;;;;;;;;;;;;;;;;;1022319;28;1083;-32
2021/11/09 01:04:16;;;;;;;;;;;;;;;;;;1022123;29;889;-29
2021/11/09 01:04:46;;;;;;;;;;;;;;;;;;1022146;29;888;-29
2021/11/09 01:05:22;;;;;;;;;;;;;;;;;;1021202;29;1142;-33
2021/11/09 01:05:53;;;;;;;;;;;;;;;;;;1021534;29;1073;-29
2021/11/09 01:06:26;;;;;;;;;;;;;;;;;;1021328;28;994;-29
2021/11/09 01:06:56;;;;;;;;;;;;;;;;;;1021430;29;1026;-32
2021/11/09 01:07:27;;;;;;;;;;;;;;;;;;1022150;28;939;-30
2021/11/09 01:07:59;;;;;;;;;;;;;;;;;;1025061;28;1019;-27
2021/11/09 01:08:30;;;;;;;;;;;;;;;;;;1025268;28;1110;-29
2021/11/09 01:09:02;;;;;;;;;;;;;;;;;;1025190;28;998;-34
2021/11/09 01:09:33;;;;;;;;;;;;;;;;;;1024874;28;796;-31
2021/11/09 01:10:07;;;;;;;;;;;;;;;;;;1021865;28;1246;-30
2021/11/09 01:10:39;;;;;;;;;;;;;;;;;;1021523;29;1113;-27
2021/11/09 01:11:11;;;;;;;;;;;;;;;;;;1025839;28;902;-31
2021/11/09 01:11:42;;;;;;;;;;;;;;;;;;1025512;28;1105;-27
2021/11/09 01:12:12;;;;;;;;;;;;;;;;;;1025618;28;927;-32
2021/11/09 01:12:43;;;;;;;;;;;;;;;;;;1025434;28;1098;-29
2021/11/09 01:13:14;;;;;;;;;;;;;;;;;;1022033;28;915;-29
2021/11/09 01:13:45;;;;;;;;;;;;;;;;;;1025160;28;1118;-29
2021/11/09 01:14:17;;;;;;;;;;;;;;;;;;1025161;28;939;-30
2021/11/09 01:14:48;;;;;;;;;;;;;;;;;;1025169;28;954;-27
2021/11/09 01:15:19;;;;;;;;;;;;;;;;;;1025004;28;962;-29
2021/11/09 01:15:51;;;;;;;;;;;;;;;;;;1024734;28;1130;-30
2021/11/09 01:16:22;;;;;;;;;;;;;;;;;;1025182;28;1076;-32
2021/11/09 01:16:53;;;;;;;;;;;;;;;;;;1024912;28;1224;-32
2021/11/09 01:17:25;;;;;;;;;;;;;;;;;;1025279;28;822;-28
2021/11/09 01:17:56;;;;;;;;;;;;;;;;;;1021836;29;947;-35
2021/11/09 01:18:32;;;;;;;;;;;;;;;;;;1022075;29;812;-30
2021/11/09 01:19:05;;;;;;;;;;;;;;;;;;1021898;28;913;-30
2021/11/09 01:19:35;;;;;;;;;;;;;;;;;;1021888;28;1887;-33
2021/11/09 01:20:07;;;;;;;;;;;;;;;;;;1021922;28;1020;-29
2021/11/09 01:20:38;;;;;;;;;;;;;;;;;;1021915;28;994;-27
2021/11/09 01:21:14;;;;;;;;;;;;;;;;;;1021943;28;926;-28
2021/11/09 01:22:03;;;;;;;;;;;;;;;;;;1021713;29;999;-29
2021/11/09 01:22:33;;;;;;;;;;;;;;;;;;1022128;29;803;-31
2021/11/09 01:23:06;;;;;;;;;;;;;;;;;;1021875;28;979;-28
2021/11/09 01:23:37;;;;;;;;;;;;;;;;;;1021747;28;1020;-29
2021/11/09 01:24:07;;;;;;;;;;;;;;;;;;1022037;29;934;-33
2021/11/09 01:24:38;;;;;;;;;;;;;;;;;;1021937;28;871;-29
2021/11/09 01:25:09;;;;;;;;;;;;;;;;;;1025003;28;1166;-34
2021/11/09 01:25:40;;;;;;;;;;;;;;;;;;1024828;28;1087;-27
2021/11/09 01:26:11;;;;;;;;;;;;;;;;;;1025098;28;918;-30
2021/11/09 01:26:42;;;;;;;;;;;;;;;;;;1024896;28;1014;-30
2021/11/09 01:27:13;;;;;;;;;;;;;;;;;;1021960;29;938;-30
2021/11/09 01:27:44;;;;;;;;;;;;;;;;;;1021922;29;1014;-28
2021/11/09 01:28:14;;;;;;;;;;;;;;;;;;1021980;29;1023;-30
2021/11/09 01:28:47;;;;;;;;;;;;;;;;;;1022015;28;867;-31
2021/11/09 01:29:20;;;;;;;;;;;;;;;;;;1021934;28;1001;-31
2021/11/09 01:29:50;;;;;;;;;;;;;;;;;;1021969;28;823;-29
2021/11/09 01:30:21;;;;;;;;;;;;;;;;;;1021969;28;989;-30
2021/11/09 01:30:51;;;;;;;;;;;;;;;;;;1022069;28;810;-33
2021/11/09 01:31:22;;;;;;;;;;;;;;;;;;1021802;29;943;-27
2021/11/09 01:31:58;;;;;;;;;;;;;;;;;;1021820;29;2065;-34
2021/11/09 01:32:29;;;;;;;;;;;;;;;;;;1021862;29;950;-31
2021/11/09 01:33:00;;;;;;;;;;;;;;;;;;1021822;29;1042;-29
2021/11/09 01:33:30;;;;;;;;;;;;;;;;;;1021813;29;835;-33
2021/11/09 01:34:02;;;;;;;;;;;;;;;;;;1021783;28;974;-31
2021/11/09 01:34:35;;;;;;;;;;;;;;;;;;1021746;29;967;-28
2021/11/09 01:35:07;;;;;;;;;;;;;;;;;;1022073;28;915;-33
2021/11/09 01:35:38;;;;;;;;;;;;;;;;;;1021678;28;1282;-27
2021/11/09 01:36:08;;;;;;;;;;;;;;;;;;1021709;28;1059;-30
2021/11/09 01:36:39;;;;;;;;;;;;;;;;;;1021622;28;1017;-30
2021/11/09 01:37:11;;;;;;;;;;;;;;;;;;1021797;28;1073;-29
2021/11/09 01:37:42;;;;;;;;;;;;;;;;;;1021928;28;957;-28
2021/11/09 01:38:13;;;;;;;;;;;;;;;;;;1021945;28;870;-26
2021/11/09 01:38:43;;;;;;;;;;;;;;;;;;1021845;28;870;-30
2021/11/09 01:39:14;;;;;;;;;;;;;;;;;;1021943;29;856;-30
2021/11/09 01:39:44;;;;;;;;;;;;;;;;;;1021737;29;1915;-34
2021/11/09 01:40:15;;;;;;;;;;;;;;;;;;1021507;28;998;-31
2021/11/09 01:40:46;;;;;;;;;;;;;;;;;;1021707;29;899;-30
2021/11/09 01:41:20;;;;;;;;;;;;;;;;;;1021694;29;1238;-34
2021/11/09 01:41:51;;;;;;;;;;;;;;;;;;1021217;29;998;-28
2021/11/09 01:42:25;;;;;;;;;;;;;;;;;;1020740;29;1398;-29
2021/11/09 01:42:57;;;;;;;;;;;;;;;;;;1021028;29;1535;-33
2021/11/09 01:43:29;;;;;;;;;;;;;;;;;;1021165;29;1092;-29
2021/11/09 01:44:03;;;;;;;;;;;;;;;;;;1021849;29;855;-32
2021/11/09 01:44:33;;;;;;;;;;;;;;;;;;1021902;29;878;-32
2021/11/09 01:45:05;;;;;;;;;;;;;;;;;;1021896;28;834;-30
2021/11/09 01:45:38;;;;;;;;;;;;;;;;;;1021082;29;942;-34
2021/11/09 01:46:09;;;;;;;;;;;;;;;;;;1021836;29;835;-31
2021/11/09 01:46:44;;;;;;;;;;;;;;;;;;1021608;29;886;-30
2021/11/09 01:47:15;;;;;;;;;;;;;;;;;;1021752;28;1261;-33
2021/11/09 01:47:46;;;;;;;;;;;;;;;;;;1021915;28;894;-28
2021/11/09 01:48:17;;;;;;;;;;;;;;;;;;1021801;29;954;-29
2021/11/09 01:48:48;;;;;;;;;;;;;;;;;;1021758;28;911;-31
2021/11/09 01:49:24;;;;;;;;;;;;;;;;;;1021758;29;842;-33
2021/11/09 01:49:54;;;;;;;;;;;;;;;;;;1021858;28;1138;-30
2021/11/09 01:50:26;;;;;;;;;;;;;;;;;;1021888;29;894;-33
2021/11/09 01:50:59;;;;;;;;;;;;;;;;;;1021911;29;907;-30
2021/11/09 01:51:30;;;;;;;;;;;;;;;;;;1021541;28;985;-32
2021/11/09 01:52:00;;;;;;;;;;;;;;;;;;1021794;28;800;-33
2021/11/09 01:52:31;;;;;;;;;;;;;;;;;;1022008;28;1062;-31
2021/11/09 01:53:01;;;;;;;;;;;;;;;;;;1021734;29;938;-28
2021/11/09 01:53:32;;;;;;;;;;;;;;;;;;1021709;29;1032;-28
2021/11/09 01:54:03;;;;;;;;;;;;;;;;;;1021614;29;1099;-34
2021/11/09 01:54:33;;;;;;;;;;;;;;;;;;1025572;28;820;-28
2021/11/09 01:55:05;;;;;;;;;;;;;;;;;;1025506;28;1270;-31
2021/11/09 01:55:36;;;;;;;;;;;;;;;;;;1025370;28;816;-29
2021/11/09 01:56:08;;;;;;;;;;;;;;;;;;1025512;28;1231;-32
2021/11/09 01:56:39;;;;;;;;;;;;;;;;;;1025241;28;981;-29
2021/11/09 01:57:09;;;;;;;;;;;;;;;;;;1025447;28;1826;-30
2021/11/09 01:57:43;;;;;;;;;;;;;;;;;;1025023;28;1116;-31
2021/11/09 01:58:14;;;;;;;;;;;;;;;;;;1021909;28;799;-31
2021/11/09 01:58:45;;;;;;;;;;;;;;;;;;1025060;28;1006;-32
2021/11/09 01:59:18;;;;;;;;;;;;;;;;;;1028996;28;985;-32
2021/11/09 01:59:49;;;;;;;;;;;;;;;;;;1028885;28;2001;-32
2021/11/09 02:00:23;;;;;;;;;;;;;;;;;;1029164;28;1063;-33
2021/11/09 02:00:55;;;;;;;;;;;;;;;;;;1027473;28;1516;-31
2021/11/09 02:01:26;;;;;;;;;;;;;;;;;;1020958;28;1150;-32
2021/11/09 02:01:56;;;;;;;;;;;;;;;;;;1021741;28;1120;-30
2021/11/09 02:02:27;;;;;;;;;;;;;;;;;;1021519;29;940;-29
2021/11/09 02:02:57;;;;;;;;;;;;;;;;;;1021886;28;963;-31
2021/11/09 02:03:28;;;;;;;;;;;;;;;;;;1021827;29;914;-28
2021/11/09 02:04:00;;;;;;;;;;;;;;;;;;1021705;29;888;-30
2021/11/09 02:04:33;;;;;;;;;;;;;;;;;;1021476;29;1101;-29
2021/11/09 02:05:06;;;;;;;;;;;;;;;;;;1021692;29;1062;-34
2021/11/09 02:05:36;;;;;;;;;;;;;;;;;;1021867;28;907;-28
2021/11/09 02:06:07;;;;;;;;;;;;;;;;;;1021800;29;915;-32
2021/11/09 02:06:37;;;;;;;;;;;;;;;;;;1021576;29;1006;-32
2021/11/09 02:07:08;;;;;;;;;;;;;;;;;;1021814;28;898;-32
2021/11/09 02:07:42;;;;;;;;;;;;;;;;;;1021830;29;1045;-33
2021/11/09 02:08:12;;;;;;;;;;;;;;;;;;1021689;28;1013;-30
2021/11/09 02:08:43;;;;;;;;;;;;;;;;;;1019953;28;891;-31
2021/11/09 02:09:14;;;;;;;;;;;;;;;;;;1021729;28;1081;-31
2021/11/09 02:09:45;;;;;;;;;;;;;;;;;;1021768;29;910;-33
2021/11/09 02:10:16;;;;;;;;;;;;;;;;;;1021872;28;957;-29
2021/11/09 02:10:49;;;;;;;;;;;;;;;;;;1021843;29;856;-30
2021/11/09 02:11:20;;;;;;;;;;;;;;;;;;1021874;28;868;-31
2021/11/09 02:11:51;;;;;;;;;;;;;;;;;;1021584;29;859;-30
2021/11/09 02:12:23;;;;;;;;;;;;;;;;;;1021774;28;958;-32
2021/11/09 02:12:54;;;;;;;;;;;;;;;;;;1021633;28;1227;-32
2021/11/09 02:13:27;;;;;;;;;;;;;;;;;;1021555;29;1033;-30
2021/11/09 02:13:57;;;;;;;;;;;;;;;;;;1021955;29;938;-31
2021/11/09 02:14:28;;;;;;;;;;;;;;;;;;1021341;28;1262;-30
2021/11/09 02:15:04;;;;;;;;;;;;;;;;;;1022010;29;946;-29
2021/11/09 02:15:35;;;;;;;;;;;;;;;;;;1021551;28;1261;-31
2021/11/09 02:16:09;;;;;;;;;;;;;;;;;;1020883;29;1131;-30
2021/11/09 02:16:40;;;;;;;;;;;;;;;;;;1020803;28;1018;-31
2021/11/09 02:17:11;;;;;;;;;;;;;;;;;;1020921;29;1079;-32
2021/11/09 02:17:43;;;;;;;;;;;;;;;;;;1021098;29;867;-33
2021/11/09 02:18:16;;;;;;;;;;;;;;;;;;1021954;28;994;-28
2021/11/09 02:18:46;;;;;;;;;;;;;;;;;;1021630;28;1149;-31
2021/11/09 02:19:17;;;;;;;;;;;;;;;;;;1021828;29;1161;-27
2021/11/09 02:19:47;;;;;;;;;;;;;;;;;;1021309;28;1995;-35
2021/11/09 02:20:20;;;;;;;;;;;;;;;;;;1021977;29;796;-29
2021/11/09 02:21:05;;;;;;;;;;;;;;;;;;1021901;28;1043;-30
2021/11/09 02:21:35;;;;;;;;;;;;;;;;;;1016939;29;1071;-28
2021/11/09 02:22:09;;;;;;;;;;;;;;;;;;1013146;29;994;-29
2021/11/09 02:22:41;;;;;;;;;;;;;;;;;;1012899;29;1301;-29
2021/11/09 02:23:12;;;;;;;;;;;;;;;;;;1010352;29;1020;-34
2021/11/09 02:23:43;;;;;;;;;;;;;;;;;;1013640;29;1068;-32
2021/11/09 02:24:14;;;;;;;;;;;;;;;;;;1017219;29;966;-28
2021/11/09 02:24:44;;;;;;;;;;;;;;;;;;1017467;29;934;-29
2021/11/09 02:25:19;;;;;;;;;;;;;;;;;;1020983;28;1250;-31
2021/11/09 02:25:49;;;;;;;;;;;;;;;;;;1021555;28;890;-30
2021/11/09 02:26:20;;;;;;;;;;;;;;;;;;1021821;29;974;-30
2021/11/09 02:26:51;;;;;;;;;;;;;;;;;;1021276;29;974;-29
2021/11/09 02:27:21;;;;;;;;;;;;;;;;;;1021831;29;925;-33
2021/11/09 02:27:52;;;;;;;;;;;;;;;;;;1021299;28;1214;-32
2021/11/09 02:28:22;;;;;;;;;;;;;;;;;;1021815;28;1032;-32
2021/11/09 02:28:55;;;;;;;;;;;;;;;;;;1021647;29;1033;-29
2021/11/09 02:29:26;;;;;;;;;;;;;;;;;;1024794;28;1007;-31
2021/11/09 02:29:58;;;;;;;;;;;;;;;;;;1020799;29;997;-30
2021/11/09 02:30:29;;;;;;;;;;;;;;;;;;1020920;29;900;-29
2021/11/09 02:30:59;;;;;;;;;;;;;;;;;;1020910;29;1070;-31
2021/11/09 02:31:30;;;;;;;;;;;;;;;;;;1021086;29;1084;-34
2021/11/09 02:32:00;;;;;;;;;;;;;;;;;;1021960;28;1056;-30
2021/11/09 02:32:31;;;;;;;;;;;;;;;;;;1021858;29;1028;-30
2021/11/09 02:33:04;;;;;;;;;;;;;;;;;;1021807;28;981;-33
2021/11/09 02:33:38;;;;;;;;;;;;;;;;;;1028821;28;998;-32
2021/11/09 02:34:08;;;;;;;;;;;;;;;;;;1020859;28;1075;-30
2021/11/09 02:34:39;;;;;;;;;;;;;;;;;;1020617;29;1490;-29
2021/11/09 02:35:10;;;;;;;;;;;;;;;;;;1019554;29;1191;-28
2021/11/09 02:35:41;;;;;;;;;;;;;;;;;;1014335;28;1253;-29
2021/11/09 02:36:11;;;;;;;;;;;;;;;;;;1029166;28;1117;-32
2021/11/09 02:36:41;;;;;;;;;;;;;;;;;;1028961;28;1078;-32
2021/11/09 02:37:12;;;;;;;;;;;;;;;;;;1029371;28;1315;-32
2021/11/09 02:37:42;;;;;;;;;;;;;;;;;;1029177;28;1185;-29
2021/11/09 02:38:13;;;;;;;;;;;;;;;;;;1021671;29;848;-29
2021/11/09 02:38:44;;;;;;;;;;;;;;;;;;1021667;29;964;-29
2021/11/09 02:39:15;;;;;;;;;;;;;;;;;;1024914;28;1194;-35
2021/11/09 02:39:46;;;;;;;;;;;;;;;;;;1024821;28;1906;-32
2021/11/09 02:40:17;;;;;;;;;;;;;;;;;;1024841;28;1058;-32
2021/11/09 02:40:47;;;;;;;;;;;;;;;;;;1024685;28;930;-35
2021/11/09 02:41:18;;;;;;;;;;;;;;;;;;1021694;28;961;-31
2021/11/09 02:41:50;;;;;;;;;;;;;;;;;;1021407;29;840;-27
2021/11/09 02:42:20;;;;;;;;;;;;;;;;;;1029000;28;948;-28
2021/11/09 02:42:53;;;;;;;;;;;;;;;;;;1028613;28;1061;-29
2021/11/09 02:43:24;;;;;;;;;;;;;;;;;;1029054;28;937;-30
2021/11/09 02:43:59;;;;;;;;;;;;;;;;;;1028127;28;844;-32
2021/11/09 02:44:49;;;;;;;;;;;;;;;;;;1021845;28;1034;-34
2021/11/09 02:45:27;;;;;;;;;;;;;;;;;;1020903;29;948;-27
2021/11/09 02:46:55;;;;;;;;;;;;;;;;;;1020977;28;962;-31
2021/11/09 02:47:26;;;;;;;;;;;;;;;;;;1021214;29;1264;-32
2021/11/09 02:48:01;;;;;;;;;;;;;;;;;;1021631;28;950;-31
2021/11/09 02:48:40;;;;;;;;;;;;;;;;;;1021405;28;1191;-32
2021/11/09 02:49:29;;;;;;;;;;;;;;;;;;1028480;28;1014;-31
2021/11/09 02:50:04;;;;;;;;;;;;;;;;;;1028717;28;1005;-30
2021/11/09 02:50:38;;;;;;;;;;;;;;;;;;1028881;28;830;-29
2021/11/09 02:51:22;;;;;;;;;;;;;;;;;;1021545;28;841;-32
2021/11/09 02:51:56;;;;;;;;;;;;;;;;;;1021327;28;948;-31
2021/11/09 02:52:30;;;;;;;;;;;;;;;;;;1021408;28;1035;-32
2021/11/09 02:53:05;;;;;;;;;;;;;;;;;;1021478;28;1063;-29
2021/11/09 02:53:41;;;;;;;;;;;;;;;;;;1021570;28;955;-34
2021/11/09 02:54:57;;;;;;;;;;;;;;;;;;1021287;29;1277;-27
2021/11/09 02:55:33;;;;;;;;;;;;;;;;;;1021465;28;1016;-31
2021/11/09 02:56:55;;;;;;;;;;;;;;;;;;1021394;28;1396;-28
2021/11/09 02:57:04;;;;;;;;;;;;;;;;;;1020924;28;1200;-27
2021/11/09 02:59:30;;;;;;;;;;;;;;;;;;1021521;29;1128;-31
2021/11/09 03:00:10;;;;;;;;;;;;;;;;;;1021512;28;1907;-29
2021/11/09 03:01:51;;;;;;;;;;;;;;;;;;1021672;28;788;-31
2021/11/09 03:03:18;;;;;;;;;;;;;;;;;;1021434;28;828;-28
2021/11/09 03:07:39;;;;;;;;;;;;;;;;;;1024747;28;1085;-32
2021/11/09 03:08:37;;;;;;;;;;;;;;;;;;1023905;28;1075;-32
2021/11/09 03:10:16;;;;;;;;;;;;;;;;;;1020919;28;887;-36
2021/11/09 03:10:44;;;;;;;;;;;;;;;;;;1021338;29;1433;-27
2021/11/09 03:11:20;;;;;;;;;;;;;;;;;;1021644;28;1322;-31
2021/11/09 03:11:57;;;;;;;;;;;;;;;;;;1021758;28;1009;-34
2021/11/09 03:12:35;;;;;;;;;;;;;;;;;;1021282;28;1161;-33
2021/11/09 03:13:06;;;;;;;;;;;;;;;;;;1021468;28;1203;-30
2021/11/09 03:13:38;;;;;;;;;;;;;;;;;;1021603;28;925;-35
2021/11/09 03:14:08;;;;;;;;;;;;;;;;;;1021592;28;946;-27
2021/11/09 03:14:41;;;;;;;;;;;;;;;;;;1021710;28;997;-32
2021/11/09 03:15:13;;;;;;;;;;;;;;;;;;1021547;28;935;-29
2021/11/09 03:15:43;;;;;;;;;;;;;;;;;;1021637;28;1034;-33
2021/11/09 03:16:16;;;;;;;;;;;;;;;;;;1013062;29;940;-28
2021/11/09 03:16:46;;;;;;;;;;;;;;;;;;1012680;29;1064;-35
2021/11/09 03:17:21;;;;;;;;;;;;;;;;;;1012961;29;1070;-30
2021/11/09 03:17:56;;;;;;;;;;;;;;;;;;1014592;29;989;-31
2021/11/09 03:18:28;;;;;;;;;;;;;;;;;;1021550;28;1005;-32
2021/11/09 03:19:22;;;;;;;;;;;;;;;;;;1021444;28;1000;-28
2021/11/09 03:19:59;;;;;;;;;;;;;;;;;;1021653;28;1961;-35
2021/11/09 03:20:37;;;;;;;;;;;;;;;;;;1021538;28;965;-27
2021/11/09 03:44:30;;;;;;;;;;;;;;;;;;1021497;28;1075;-30
2021/11/09 03:45:08;;;;;;;;;;;;;;;;;;1021493;28;891;-32
2021/11/09 03:45:39;;;;;;;;;;;;;;;;;;1021520;28;851;-30
2021/11/09 03:46:10;;;;;;;;;;;;;;;;;;1021761;28;1377;-32
2021/11/09 03:46:46;;;;;;;;;;;;;;;;;;1021408;28;918;-32
2021/11/09 03:47:18;;;;;;;;;;;;;;;;;;1021618;29;914;-29
2021/11/09 03:47:53;;;;;;;;;;;;;;;;;;1021530;28;847;-33
2021/11/09 03:48:23;;;;;;;;;;;;;;;;;;1021365;28;1033;-31
2021/11/09 03:48:54;;;;;;;;;;;;;;;;;;1021625;29;986;-29
2021/11/09 03:49:29;;;;;;;;;;;;;;;;;;1021276;28;886;-29
2021/11/09 03:49:59;;;;;;;;;;;;;;;;;;1021625;28;1024;-32
2021/11/09 03:50:31;;;;;;;;;;;;;;;;;;1021530;28;944;-28
2021/11/09 03:51:02;;;;;;;;;;;;;;;;;;1024181;28;1320;-30
2021/11/09 03:51:33;;;;;;;;;;;;;;;;;;1024834;28;1086;-28
2021/11/09 03:52:11;;;;;;;;;;;;;;;;;;1024530;28;978;-29
2021/11/09 03:53:29;;;;;;;;;;;;;;;;;;1023809;28;859;-32
2021/11/09 03:53:39;;;;;;;;;;;;;;;;;;1024542;28;1349;-27
2021/11/09 03:54:13;;;;;;;;;;;;;;;;;;1025189;28;990;-30
2021/11/09 03:54:46;;;;;;;;;;;;;;;;;;1024780;28;1057;-31
2021/11/09 03:56:07;;;;;;;;;;;;;;;;;;1021507;28;994;-32
2021/11/09 03:56:19;;;;;;;;;;;;;;;;;;1016069;28;1332;-27
2021/11/09 03:56:55;;;;;;;;;;;;;;;;;;1021310;28;969;-32
2021/11/09 03:57:36;;;;;;;;;;;;;;;;;;1021382;28;1074;-29
2021/11/09 03:58:25;;;;;;;;;;;;;;;;;;1021634;28;1322;-30
2021/11/09 03:58:58;;;;;;;;;;;;;;;;;;1028357;28;1240;-30
2021/11/09 04:00:35;;;;;;;;;;;;;;;;;;1028586;28;1039;-29
2021/11/09 04:00:39;;;;;;;;;;;;;;;;;;1013938;29;1298;-27
2021/11/09 04:01:18;;;;;;;;;;;;;;;;;;1016855;29;971;-32
2021/11/09 04:03:01;;;;;;;;;;;;;;;;;;1018907;29;1110;-30
2021/11/09 04:03:56;;;;;;;;;;;;;;;;;;1021822;28;843;-30
2021/11/09 04:04:42;;;;;;;;;;;;;;;;;;1022255;28;1154;-32
2021/11/09 04:05:15;;;;;;;;;;;;;;;;;;1022161;28;1235;-28
2021/11/09 04:05:48;;;;;;;;;;;;;;;;;;1022181;28;1038;-32
2021/11/09 04:06:37;;;;;;;;;;;;;;;;;;1022260;28;1026;-33
2021/11/09 04:07:16;;;;;;;;;;;;;;;;;;1022365;28;1031;-29
2021/11/09 04:17:04;;;;;;;;;;;;;;;;;;1013689;29;947;-31
2021/11/09 04:19:41;;;;;;;;;;;;;;;;;;1013759;29;1018;-30
2021/11/09 04:20:26;;;;;;;;;;;;;;;;;;1016150;28;1423;-29
2021/11/09 04:24:56;;;;;;;;;;;;;;;;;;1021447;29;1250;-35
2021/11/09 04:27:02;;;;;;;;;;;;;;;;;;1021994;28;1049;-30
2021/11/09 04:34:07;;;;;;;;;;;;;;;;;;1013022;29;1219;-31
2021/11/09 04:47:17;;;;;;;;;;;;;;;;;;1021961;29;1146;-28
2021/11/09 04:51:30;;;;;;;;;;;;;;;;;;1029331;28;1050;-32
2021/11/09 05:09:42;;;;;;;;;;;;;;;;;;1013960;29;897;-31
2021/11/09 05:10:16;;;;;;;;;;;;;;;;;;1014508;28;1083;-30
2021/11/09 05:10:48;;;;;;;;;;;;;;;;;;1014436;28;1198;-30
2021/11/09 05:11:28;;;;;;;;;;;;;;;;;;1021346;28;1092;-31
2021/11/09 05:11:59;;;;;;;;;;;;;;;;;;1021122;28;1051;-32
2021/11/09 05:12:30;;;;;;;;;;;;;;;;;;1021345;29;1044;-30
2021/11/09 05:13:01;;;;;;;;;;;;;;;;;;1020687;29;1088;-32
2021/11/09 05:13:32;;;;;;;;;;;;;;;;;;1014010;28;961;-29
2021/11/09 05:14:02;;;;;;;;;;;;;;;;;;1014047;28;867;-29
2021/11/09 05:14:33;;;;;;;;;;;;;;;;;;1014243;28;1069;-31
2021/11/09 05:15:04;;;;;;;;;;;;;;;;;;1020576;28;1010;-30
2021/11/09 05:15:34;;;;;;;;;;;;;;;;;;1021192;29;906;-27
2021/11/09 05:16:06;;;;;;;;;;;;;;;;;;1021740;28;929;-36
2021/11/09 05:16:37;;;;;;;;;;;;;;;;;;1020773;28;1443;-32
2021/11/09 05:17:07;;;;;;;;;;;;;;;;;;1014068;28;887;-30
2021/11/09 05:17:41;;;;;;;;;;;;;;;;;;1014119;29;937;-32
2021/11/09 05:18:15;;;;;;;;;;;;;;;;;;1014106;29;942;-32
2021/11/09 05:18:45;;;;;;;;;;;;;;;;;;1014135;29;982;-29
2021/11/09 05:19:16;;;;;;;;;;;;;;;;;;1014177;28;812;-29
2021/11/09 05:19:46;;;;;;;;;;;;;;;;;;1026893;28;1993;-27
2021/11/09 05:20:17;;;;;;;;;;;;;;;;;;1029286;28;973;-32
2021/11/09 05:20:47;;;;;;;;;;;;;;;;;;1029374;28;1049;-30
2021/11/09 05:21:18;;;;;;;;;;;;;;;;;;1029022;28;879;-30
2021/11/09 05:21:48;;;;;;;;;;;;;;;;;;1017844;29;1048;-32
2021/11/09 05:22:19;;;;;;;;;;;;;;;;;;1017907;29;1085;-31